Messwerte Chico Municipal

Temperatur

Temperatur
°C
1624093200 2.00 2.00 29
1624096800 3.00 3.00 24
1624100400 4.00 4.00 26
1624104000 5.00 5.00 26
1624107600 6.00 6.00 24
1624111200 7.00 7.00 25
1624114800 8.00 8.00 28
1624118400 9.00 9.00 29
1624122000 10.00 10.00 32
1624125600 11.00 11.00 33
1624129200 12.00 12.00 34
1624132800 13.00 13.00 37
1624136400 14.00 14.00 28
1624140000 15.00 15.00 39
1624143600 16.00 16.00 39
1624147200 17.00 17.00
1624150800 18.00 18.00 39
1624154400 19.00 19.00 39
1624158000 20.00 20.00
1624161600 21.00 21.00 35
1624165200 22.00 22.00 33
1624168800 23.00 23.00 31
1624172400 0.00 0.00 32
1624176000 1.00 1.00 29

Aktuellste Messwerte

Wettercharakter
Wetter: klar
Temperatur
26 °C
Feuchtigkeit
25 %
Wind
0 km/h, -
Luftdruck
1006 hPa
Messzeit: 20. Juni 2021, 2.00Datenquelle: METAR

Weitere Messstationen in der Nähe

Messstation Temperatur Entfernung
Red Bluff 24 °C 51 km
Marysville - 82 km
Marysville 24 °C 82 km
Redding 24 °C 86 km
Emigrant Gap 24 °C 114 km
Auburn 26 °C 116 km
Ukiah 20 °C 137 km

Wind

Windrichtung Böen Mittelwind
° km/h km/h
1624093200 2.00 1.00 - 2.00 60° 5
1624096800 3.00 2.00 - 3.00 330° 10
1624100400 4.00 3.00 - 4.00 20° 5
1624104000 5.00 4.00 - 5.00 30° 5
1624107600 6.00 5.00 - 6.00 20° 0
1624111200 7.00 6.00 - 7.00 5
1624114800 8.00 7.00 - 8.00 10
1624118400 9.00 8.00 - 9.00 10
1624122000 10.00 9.00 - 10.00 10
1624125600 11.00 10.00 - 11.00 10
1624129200 12.00 11.00 - 12.00 10
1624132800 13.00 12.00 - 13.00 170° 10
1624136400 14.00 13.00 - 14.00 150° 20
1624140000 15.00 14.00 - 15.00 130° 20
1624143600 16.00 15.00 - 16.00 150° 20
1624147200 17.00 16.00 - 17.00
1624150800 18.00 17.00 - 18.00 180° 20
1624154400 19.00 18.00 - 19.00 140° 20
1624158000 20.00 19.00 - 20.00
1624161600 21.00 20.00 - 21.00 150° 10
1624165200 22.00 21.00 - 22.00 70° 10
1624168800 23.00 22.00 - 23.00 110° 5
1624172400 0.00 23.00 - 0.00 100° 10
1624176000 1.00 0.00 - 1.00 90° 5

Ihre Wetterstation

Fehlt Ihre Wetterstation auf unserem Portal?

Schreiben Sie an network@meteonews.ch

Klima

Wann ist es am wärmsten? Wann regnet es am wenigsten? Unsere Klimadaten geben Auskunft.